Codell, Kansas
Current Conditions -  °F | °C
As of 8:35 PM on Tuesday 21 Oct 2014 (Local Time) from KHYS Reporting Station
Clear Clear  
Wind Chill: 64°   Ceiling: Unl
Heat Index: 64°   Visibility: 10mi
Dew Point: 52°   Wind: 10mph
Humidity: 64%   Direction: 160°SSE
Pressure: 29.99"   Gusts: NA
Location:  39.2151°N, 99.302°W
Report Text: KHYS 220135Z AUTO 16009KT 10SM CLR 18/11 A2999 RMK AO1
Loading
Personal Weather Stations






























Interactive Weather Map
Tropical Storm Tracking
New forecast layout! Learn more

10-Day Weather Forecast

Advertisements
Track Severe Weather on mobile